sensor_id;sensor_type;location;lat;lon;timestamp;P1;durP1;ratioP1;P2;durP2;ratioP2
14961;SDS011;56489;53.166;10.864;2022-09-09T00:01:12;21.92;;;12.98;;
14961;SDS011;56489;53.166;10.864;2022-09-09T00:03:48;22.13;;;12.80;;
14961;SDS011;56489;53.166;10.864;2022-09-09T00:09:40;19.13;;;12.30;;
14961;SDS011;56489;53.166;10.864;2022-09-09T00:12:17;23.17;;;12.52;;
14961;SDS011;56489;53.166;10.864;2022-09-09T00:15:12;20.20;;;12.40;;
14961;SDS011;56489;53.166;10.864;2022-09-09T00:17:56;16.05;;;10.57;;
14961;SDS011;56489;53.166;10.864;2022-09-09T00:20:37;12.18;;;8.98;;
14961;SDS011;56489;53.166;10.864;2022-09-09T00:23:37;11.13;;;8.38;;
14961;SDS011;56489;53.166;10.864;2022-09-09T00:26:09;9.88;;;7.93;;
14961;SDS011;56489;53.166;10.864;2022-09-09T00:31:38;7.72;;;6.63;;
14961;SDS011;56489;53.166;10.864;2022-09-09T00:36:40;6.65;;;5.95;;
14961;SDS011;56489;53.166;10.864;2022-09-09T00:39:10;7.10;;;5.93;;
14961;SDS011;56489;53.166;10.864;2022-09-09T00:53:02;8.95;;;6.50;;
14961;SDS011;56489;53.166;10.864;2022-09-09T00:55:54;7.18;;;6.20;;
14961;SDS011;56489;53.166;10.864;2022-09-09T00:58:36;8.80;;;6.43;;
14961;SDS011;56489;53.166;10.864;2022-09-09T01:01:04;7.97;;;6.65;;
14961;SDS011;56489;53.166;10.864;2022-09-09T01:03:37;11.40;;;7.38;;
14961;SDS011;56489;53.166;10.864;2022-09-09T01:06:16;10.10;;;7.82;;
14961;SDS011;56489;53.166;10.864;2022-09-09T01:09:12;11.77;;;8.85;;
14961;SDS011;56489;53.166;10.864;2022-09-09T01:15:26;17.65;;;10.95;;
14961;SDS011;56489;53.166;10.864;2022-09-09T01:20:39;12.65;;;8.95;;
14961;SDS011;56489;53.166;10.864;2022-09-09T01:28:51;9.07;;;7.03;;
14961;SDS011;56489;53.166;10.864;2022-09-09T01:31:20;7.90;;;6.53;;
14961;SDS011;56489;53.166;10.864;2022-09-09T01:34:09;11.98;;;8.30;;
14961;SDS011;56489;53.166;10.864;2022-09-09T01:36:39;14.00;;;8.85;;
14961;SDS011;56489;53.166;10.864;2022-09-09T01:39:13;11.27;;;7.72;;
14961;SDS011;56489;53.166;10.864;2022-09-09T01:41:40;15.40;;;9.25;;
14961;SDS011;56489;53.166;10.864;2022-09-09T01:44:07;13.63;;;9.48;;
14961;SDS011;56489;53.166;10.864;2022-09-09T01:46:35;16.88;;;8.80;;
14961;SDS011;56489;53.166;10.864;2022-09-09T01:49:03;11.95;;;8.60;;
14961;SDS011;56489;53.166;10.864;2022-09-09T01:51:33;10.25;;;7.32;;
14961;SDS011;56489;53.166;10.864;2022-09-09T01:54:02;9.98;;;7.15;;
14961;SDS011;56489;53.166;10.864;2022-09-09T01:56:39;7.03;;;5.45;;
14961;SDS011;56489;53.166;10.864;2022-09-09T02:02:19;7.07;;;6.15;;
14961;SDS011;56489;53.166;10.864;2022-09-09T02:05:37;8.32;;;6.65;;
14961;SDS011;56489;53.166;10.864;2022-09-09T02:08:10;10.93;;;7.22;;
14961;SDS011;56489;53.166;10.864;2022-09-09T02:10:46;7.68;;;5.88;;
14961;SDS011;56489;53.166;10.864;2022-09-09T02:13:20;8.07;;;5.53;;
14961;SDS011;56489;53.166;10.864;2022-09-09T02:15:52;6.40;;;5.50;;
14961;SDS011;56489;53.166;10.864;2022-09-09T02:18:34;7.20;;;5.72;;
14961;SDS011;56489;53.166;10.864;2022-09-09T02:21:06;7.78;;;5.75;;
14961;SDS011;56489;53.166;10.864;2022-09-09T02:23:33;10.25;;;6.53;;
14961;SDS011;56489;53.166;10.864;2022-09-09T02:26:02;8.20;;;6.07;;
14961;SDS011;56489;53.166;10.864;2022-09-09T02:28:31;7.43;;;6.10;;
14961;SDS011;56489;53.166;10.864;2022-09-09T02:31:01;5.82;;;5.13;;
14961;SDS011;56489;53.166;10.864;2022-09-09T02:33:30;5.95;;;5.35;;
14961;SDS011;56489;53.166;10.864;2022-09-09T02:36:03;7.72;;;5.50;;
14961;SDS011;56489;53.166;10.864;2022-09-09T02:38:34;8.30;;;5.28;;
14961;SDS011;56489;53.166;10.864;2022-09-09T02:41:06;12.65;;;7.93;;
14961;SDS011;56489;53.166;10.864;2022-09-09T02:43:36;12.52;;;7.00;;
14961;SDS011;56489;53.166;10.864;2022-09-09T02:46:08;13.48;;;7.07;;
14961;SDS011;56489;53.166;10.864;2022-09-09T02:48:51;10.23;;;6.93;;
14961;SDS011;56489;53.166;10.864;2022-09-09T02:51:26;11.07;;;7.85;;
14961;SDS011;56489;53.166;10.864;2022-09-09T02:56:40;12.88;;;8.27;;
14961;SDS011;56489;53.166;10.864;2022-09-09T02:59:12;7.28;;;6.30;;
14961;SDS011;56489;53.166;10.864;2022-09-09T03:01:39;6.45;;;5.60;;
14961;SDS011;56489;53.166;10.864;2022-09-09T03:04:06;5.72;;;5.22;;
14961;SDS011;56489;53.166;10.864;2022-09-09T03:06:33;5.70;;;5.03;;
14961;SDS011;56489;53.166;10.864;2022-09-09T03:08:59;8.90;;;6.32;;
14961;SDS011;56489;53.166;10.864;2022-09-09T03:11:28;10.52;;;7.20;;
14961;SDS011;56489;53.166;10.864;2022-09-09T03:13:55;7.45;;;6.30;;
14961;SDS011;56489;53.166;10.864;2022-09-09T03:16:24;8.30;;;6.57;;
14961;SDS011;56489;53.166;10.864;2022-09-09T03:18:51;6.57;;;5.05;;
14961;SDS011;56489;53.166;10.864;2022-09-09T03:21:18;8.45;;;6.43;;
14961;SDS011;56489;53.166;10.864;2022-09-09T03:23:45;9.35;;;7.25;;
14961;SDS011;56489;53.166;10.864;2022-09-09T03:26:12;8.27;;;6.25;;
14961;SDS011;56489;53.166;10.864;2022-09-09T03:28:41;11.20;;;7.28;;
14961;SDS011;56489;53.166;10.864;2022-09-09T03:31:11;10.50;;;6.68;;
14961;SDS011;56489;53.166;10.864;2022-09-09T03:33:37;6.20;;;5.60;;
14961;SDS011;56489;53.166;10.864;2022-09-09T03:36:05;6.75;;;5.38;;
14961;SDS011;56489;53.166;10.864;2022-09-09T03:38:33;6.72;;;6.05;;
14961;SDS011;56489;53.166;10.864;2022-09-09T03:41:01;10.18;;;8.00;;
14961;SDS011;56489;53.166;10.864;2022-09-09T03:43:28;12.52;;;8.98;;
14961;SDS011;56489;53.166;10.864;2022-09-09T03:45:55;12.85;;;9.32;;
14961;SDS011;56489;53.166;10.864;2022-09-09T03:48:23;10.93;;;9.25;;
14961;SDS011;56489;53.166;10.864;2022-09-09T03:50:52;12.38;;;9.45;;
14961;SDS011;56489;53.166;10.864;2022-09-09T03:53:20;11.48;;;8.63;;
14961;SDS011;56489;53.166;10.864;2022-09-09T03:55:52;10.82;;;7.40;;
14961;SDS011;56489;53.166;10.864;2022-09-09T03:58:21;11.55;;;8.15;;
14961;SDS011;56489;53.166;10.864;2022-09-09T04:00:53;9.60;;;7.25;;
14961;SDS011;56489;53.166;10.864;2022-09-09T04:03:22;7.65;;;6.03;;
14961;SDS011;56489;53.166;10.864;2022-09-09T04:05:54;8.02;;;6.20;;
14961;SDS011;56489;53.166;10.864;2022-09-09T04:08:23;6.75;;;5.50;;
14961;SDS011;56489;53.166;10.864;2022-09-09T04:10:52;8.77;;;7.35;;
14961;SDS011;56489;53.166;10.864;2022-09-09T04:13:21;9.75;;;7.28;;
14961;SDS011;56489;53.166;10.864;2022-09-09T04:15:54;10.55;;;7.28;;
14961;SDS011;56489;53.166;10.864;2022-09-09T04:18:24;9.98;;;7.55;;
14961;SDS011;56489;53.166;10.864;2022-09-09T04:20:52;10.07;;;7.93;;
14961;SDS011;56489;53.166;10.864;2022-09-09T04:23:19;9.63;;;7.65;;
14961;SDS011;56489;53.166;10.864;2022-09-09T04:25:47;8.23;;;6.90;;
14961;SDS011;56489;53.166;10.864;2022-09-09T04:28:16;8.95;;;7.28;;
14961;SDS011;56489;53.166;10.864;2022-09-09T04:30:43;9.38;;;7.28;;
14961;SDS011;56489;53.166;10.864;2022-09-09T04:33:12;10.95;;;8.20;;
14961;SDS011;56489;53.166;10.864;2022-09-09T04:35:39;11.68;;;8.23;;
14961;SDS011;56489;53.166;10.864;2022-09-09T04:38:11;11.85;;;8.82;;
14961;SDS011;56489;53.166;10.864;2022-09-09T04:40:38;10.85;;;7.72;;
14961;SDS011;56489;53.166;10.864;2022-09-09T04:43:08;8.70;;;7.60;;
14961;SDS011;56489;53.166;10.864;2022-09-09T04:45:39;7.82;;;5.88;;
14961;SDS011;56489;53.166;10.864;2022-09-09T04:48:06;7.38;;;6.03;;
14961;SDS011;56489;53.166;10.864;2022-09-09T04:50:33;8.88;;;6.22;;
14961;SDS011;56489;53.166;10.864;2022-09-09T04:53:01;10.77;;;7.10;;
14961;SDS011;56489;53.166;10.864;2022-09-09T04:55:28;11.48;;;8.02;;
14961;SDS011;56489;53.166;10.864;2022-09-09T04:57:56;9.80;;;6.45;;
14961;SDS011;56489;53.166;10.864;2022-09-09T05:00:24;8.95;;;6.50;;
14961;SDS011;56489;53.166;10.864;2022-09-09T05:02:50;9.63;;;6.35;;
14961;SDS011;56489;53.166;10.864;2022-09-09T05:05:17;9.30;;;6.30;;
14961;SDS011;56489;53.166;10.864;2022-09-09T05:07:45;13.70;;;8.02;;
14961;SDS011;56489;53.166;10.864;2022-09-09T05:10:13;13.18;;;8.65;;
14961;SDS011;56489;53.166;10.864;2022-09-09T05:12:40;15.88;;;9.90;;
14961;SDS011;56489;53.166;10.864;2022-09-09T05:15:07;16.27;;;10.30;;
14961;SDS011;56489;53.166;10.864;2022-09-09T05:17:34;14.18;;;9.25;;
14961;SDS011;56489;53.166;10.864;2022-09-09T05:20:01;15.90;;;9.45;;
14961;SDS011;56489;53.166;10.864;2022-09-09T05:22:34;11.45;;;7.60;;
14961;SDS011;56489;53.166;10.864;2022-09-09T05:25:01;12.68;;;7.78;;
14961;SDS011;56489;53.166;10.864;2022-09-09T05:27:28;13.50;;;9.30;;
14961;SDS011;56489;53.166;10.864;2022-09-09T05:29:57;10.23;;;7.80;;
14961;SDS011;56489;53.166;10.864;2022-09-09T05:32:24;13.60;;;8.95;;
14961;SDS011;56489;53.166;10.864;2022-09-09T05:34:51;12.43;;;7.93;;
14961;SDS011;56489;53.166;10.864;2022-09-09T05:37:18;10.35;;;7.25;;
14961;SDS011;56489;53.166;10.864;2022-09-09T05:39:45;12.93;;;7.72;;
14961;SDS011;56489;53.166;10.864;2022-09-09T05:42:11;11.38;;;7.22;;
14961;SDS011;56489;53.166;10.864;2022-09-09T05:44:38;7.38;;;6.47;;
14961;SDS011;56489;53.166;10.864;2022-09-09T05:47:06;7.15;;;5.85;;
14961;SDS011;56489;53.166;10.864;2022-09-09T05:49:34;6.28;;;5.68;;
14961;SDS011;56489;53.166;10.864;2022-09-09T05:52:00;8.15;;;5.75;;
14961;SDS011;56489;53.166;10.864;2022-09-09T05:54:30;6.65;;;5.30;;
14961;SDS011;56489;53.166;10.864;2022-09-09T05:56:57;5.32;;;4.82;;
14961;SDS011;56489;53.166;10.864;2022-09-09T05:59:25;5.82;;;5.15;;
14961;SDS011;56489;53.166;10.864;2022-09-09T06:01:51;7.30;;;6.20;;
14961;SDS011;56489;53.166;10.864;2022-09-09T06:04:18;5.90;;;5.30;;
14961;SDS011;56489;53.166;10.864;2022-09-09T06:06:48;7.18;;;5.82;;
14961;SDS011;56489;53.166;10.864;2022-09-09T06:09:15;9.15;;;6.20;;
14961;SDS011;56489;53.166;10.864;2022-09-09T06:11:42;9.98;;;6.95;;
14961;SDS011;56489;53.166;10.864;2022-09-09T06:14:09;10.48;;;6.78;;
14961;SDS011;56489;53.166;10.864;2022-09-09T06:16:36;12.30;;;6.55;;
14961;SDS011;56489;53.166;10.864;2022-09-09T06:19:08;11.82;;;7.35;;
14961;SDS011;56489;53.166;10.864;2022-09-09T06:21:35;8.63;;;6.63;;
14961;SDS011;56489;53.166;10.864;2022-09-09T06:24:03;8.80;;;6.72;;
14961;SDS011;56489;53.166;10.864;2022-09-09T06:26:32;8.25;;;6.10;;
14961;SDS011;56489;53.166;10.864;2022-09-09T06:29:00;10.43;;;6.25;;
14961;SDS011;56489;53.166;10.864;2022-09-09T06:31:30;7.70;;;5.90;;
14961;SDS011;56489;53.166;10.864;2022-09-09T06:34:00;7.70;;;5.68;;
14961;SDS011;56489;53.166;10.864;2022-09-09T06:36:29;6.65;;;5.90;;
14961;SDS011;56489;53.166;10.864;2022-09-09T06:38:57;6.65;;;5.97;;
14961;SDS011;56489;53.166;10.864;2022-09-09T06:41:25;5.43;;;4.93;;
14961;SDS011;56489;53.166;10.864;2022-09-09T06:43:56;5.78;;;4.90;;
14961;SDS011;56489;53.166;10.864;2022-09-09T06:46:27;6.97;;;5.43;;
14961;SDS011;56489;53.166;10.864;2022-09-09T06:48:58;7.45;;;5.38;;
14961;SDS011;56489;53.166;10.864;2022-09-09T06:51:29;6.95;;;5.28;;
14961;SDS011;56489;53.166;10.864;2022-09-09T06:53:58;8.60;;;5.68;;
14961;SDS011;56489;53.166;10.864;2022-09-09T06:56:26;6.80;;;5.18;;
14961;SDS011;56489;53.166;10.864;2022-09-09T06:58:55;6.13;;;5.32;;
14961;SDS011;56489;53.166;10.864;2022-09-09T07:01:25;7.43;;;5.40;;
14961;SDS011;56489;53.166;10.864;2022-09-09T07:03:54;9.43;;;6.00;;
14961;SDS011;56489;53.166;10.864;2022-09-09T07:06:23;6.18;;;5.35;;
14961;SDS011;56489;53.166;10.864;2022-09-09T07:08:51;7.38;;;6.50;;
14961;SDS011;56489;53.166;10.864;2022-09-09T07:11:22;8.50;;;6.78;;
14961;SDS011;56489;53.166;10.864;2022-09-09T07:13:53;6.35;;;5.72;;
14961;SDS011;56489;53.166;10.864;2022-09-09T07:16:20;7.70;;;5.32;;
14961;SDS011;56489;53.166;10.864;2022-09-09T07:18:50;5.70;;;5.10;;
14961;SDS011;56489;53.166;10.864;2022-09-09T07:21:18;6.10;;;5.43;;
14961;SDS011;56489;53.166;10.864;2022-09-09T07:23:47;6.50;;;5.00;;
14961;SDS011;56489;53.166;10.864;2022-09-09T07:26:16;4.70;;;4.18;;
14961;SDS011;56489;53.166;10.864;2022-09-09T07:28:46;5.72;;;5.10;;
14961;SDS011;56489;53.166;10.864;2022-09-09T07:31:17;5.18;;;4.78;;
14961;SDS011;56489;53.166;10.864;2022-09-09T07:33:45;4.32;;;3.92;;
14961;SDS011;56489;53.166;10.864;2022-09-09T07:36:13;4.30;;;3.90;;
14961;SDS011;56489;53.166;10.864;2022-09-09T07:38:45;4.10;;;3.70;;
14961;SDS011;56489;53.166;10.864;2022-09-09T07:41:18;5.63;;;4.25;;
14961;SDS011;56489;53.166;10.864;2022-09-09T07:43:56;4.97;;;4.20;;
14961;SDS011;56489;53.166;10.864;2022-09-09T07:46:24;5.00;;;4.43;;
14961;SDS011;56489;53.166;10.864;2022-09-09T07:48:52;5.53;;;5.00;;
14961;SDS011;56489;53.166;10.864;2022-09-09T07:51:22;7.45;;;5.10;;
14961;SDS011;56489;53.166;10.864;2022-09-09T07:53:58;6.47;;;5.22;;
14961;SDS011;56489;53.166;10.864;2022-09-09T07:56:28;6.18;;;5.22;;
14961;SDS011;56489;53.166;10.864;2022-09-09T07:58:59;6.70;;;5.50;;
14961;SDS011;56489;53.166;10.864;2022-09-09T08:01:30;6.25;;;4.55;;
14961;SDS011;56489;53.166;10.864;2022-09-09T08:04:00;4.45;;;4.05;;
14961;SDS011;56489;53.166;10.864;2022-09-09T08:06:32;6.10;;;3.83;;
14961;SDS011;56489;53.166;10.864;2022-09-09T08:09:03;4.03;;;3.63;;
14961;SDS011;56489;53.166;10.864;2022-09-09T08:11:31;5.43;;;3.72;;
14961;SDS011;56489;53.166;10.864;2022-09-09T08:14:04;5.57;;;4.90;;
14961;SDS011;56489;53.166;10.864;2022-09-09T08:16:32;4.60;;;4.20;;
14961;SDS011;56489;53.166;10.864;2022-09-09T08:19:03;4.22;;;3.80;;
14961;SDS011;56489;53.166;10.864;2022-09-09T08:21:30;4.72;;;4.00;;
14961;SDS011;56489;53.166;10.864;2022-09-09T08:23:59;5.20;;;4.70;;
14961;SDS011;56489;53.166;10.864;2022-09-09T08:26:28;4.88;;;4.47;;
14961;SDS011;56489;53.166;10.864;2022-09-09T08:28:57;7.47;;;5.18;;
14961;SDS011;56489;53.166;10.864;2022-09-09T08:31:32;4.55;;;4.15;;
14961;SDS011;56489;53.166;10.864;2022-09-09T08:34:02;4.45;;;4.05;;
14961;SDS011;56489;53.166;10.864;2022-09-09T08:36:31;5.72;;;4.38;;
14961;SDS011;56489;53.166;10.864;2022-09-09T08:38:59;5.13;;;4.63;;
14961;SDS011;56489;53.166;10.864;2022-09-09T08:49:50;3.88;;;3.58;;
14961;SDS011;56489;53.166;10.864;2022-09-09T08:55:30;4.20;;;3.83;;
14961;SDS011;56489;53.166;10.864;2022-09-09T08:58:19;4.10;;;3.30;;
14961;SDS011;56489;53.166;10.864;2022-09-09T09:14:31;3.45;;;3.08;;
14961;SDS011;56489;53.166;10.864;2022-09-09T09:17:02;3.92;;;3.33;;
14961;SDS011;56489;53.166;10.864;2022-09-09T09:19:33;4.13;;;3.35;;
14961;SDS011;56489;53.166;10.864;2022-09-09T09:22:06;3.53;;;3.22;;
14961;SDS011;56489;53.166;10.864;2022-09-09T09:27:33;4.13;;;3.72;;
14961;SDS011;56489;53.166;10.864;2022-09-09T09:30:14;3.70;;;3.38;;
14961;SDS011;56489;53.166;10.864;2022-09-09T09:32:59;5.57;;;4.00;;
14961;SDS011;56489;53.166;10.864;2022-09-09T09:35:29;3.25;;;2.95;;
14961;SDS011;56489;53.166;10.864;2022-09-09T09:37:56;5.65;;;3.08;;
14961;SDS011;56489;53.166;10.864;2022-09-09T09:40:52;3.22;;;2.92;;
14961;SDS011;56489;53.166;10.864;2022-09-09T09:43:26;3.45;;;3.13;;
14961;SDS011;56489;53.166;10.864;2022-09-09T09:45:57;3.30;;;3.00;;
14961;SDS011;56489;53.166;10.864;2022-09-09T09:48:43;3.40;;;3.10;;
14961;SDS011;56489;53.166;10.864;2022-09-09T09:51:13;3.47;;;2.88;;
14961;SDS011;56489;53.166;10.864;2022-09-09T09:53:49;2.83;;;2.50;;
14961;SDS011;56489;53.166;10.864;2022-09-09T09:56:15;3.03;;;2.70;;
14961;SDS011;56489;53.166;10.864;2022-09-09T10:01:33;5.20;;;3.35;;
14961;SDS011;56489;53.166;10.864;2022-09-09T10:04:01;4.68;;;2.95;;
14961;SDS011;56489;53.166;10.864;2022-09-09T10:06:39;4.35;;;3.00;;
14961;SDS011;56489;53.166;10.864;2022-09-09T10:09:26;3.72;;;3.03;;
14961;SDS011;56489;53.166;10.864;2022-09-09T10:12:01;2.90;;;2.60;;
14961;SDS011;56489;53.166;10.864;2022-09-09T10:14:39;3.28;;;2.97;;
14961;SDS011;56489;53.166;10.864;2022-09-09T10:20:01;4.45;;;3.45;;
14961;SDS011;56489;53.166;10.864;2022-09-09T10:22:36;6.57;;;3.33;;
14961;SDS011;56489;53.166;10.864;2022-09-09T10:28:04;3.08;;;2.78;;
14961;SDS011;56489;53.166;10.864;2022-09-09T10:33:51;2.58;;;2.35;;
14961;SDS011;56489;53.166;10.864;2022-09-09T10:47:10;3.28;;;2.88;;
14961;SDS011;56489;53.166;10.864;2022-09-09T10:49:58;3.10;;;2.90;;
14961;SDS011;56489;53.166;10.864;2022-09-09T10:53:02;3.20;;;2.33;;
14961;SDS011;56489;53.166;10.864;2022-09-09T10:55:39;3.58;;;2.95;;
14961;SDS011;56489;53.166;10.864;2022-09-09T10:58:20;3.13;;;2.70;;
14961;SDS011;56489;53.166;10.864;2022-09-09T11:01:03;4.15;;;3.17;;
14961;SDS011;56489;53.166;10.864;2022-09-09T11:03:40;4.57;;;2.97;;
14961;SDS011;56489;53.166;10.864;2022-09-09T11:06:13;3.83;;;2.65;;
14961;SDS011;56489;53.166;10.864;2022-09-09T11:08:45;3.05;;;2.75;;
14961;SDS011;56489;53.166;10.864;2022-09-09T11:14:35;2.75;;;2.40;;
14961;SDS011;56489;53.166;10.864;2022-09-09T11:17:01;2.30;;;2.10;;
14961;SDS011;56489;53.166;10.864;2022-09-09T11:22:07;4.25;;;2.25;;
14961;SDS011;56489;53.166;10.864;2022-09-09T11:24:59;2.63;;;2.42;;
14961;SDS011;56489;53.166;10.864;2022-09-09T11:27:33;3.33;;;2.25;;
14961;SDS011;56489;53.166;10.864;2022-09-09T11:30:12;2.35;;;2.13;;
14961;SDS011;56489;53.166;10.864;2022-09-09T11:36:10;2.95;;;2.38;;
14961;SDS011;56489;53.166;10.864;2022-09-09T11:42:15;2.75;;;1.80;;
14961;SDS011;56489;53.166;10.864;2022-09-09T11:44:44;3.00;;;2.50;;
14961;SDS011;56489;53.166;10.864;2022-09-09T11:47:25;2.53;;;2.25;;
14961;SDS011;56489;53.166;10.864;2022-09-09T11:50:07;2.30;;;2.10;;
14961;SDS011;56489;53.166;10.864;2022-09-09T11:52:40;2.20;;;2.00;;
14961;SDS011;56489;53.166;10.864;2022-09-09T11:55:10;2.45;;;2.30;;
14961;SDS011;56489;53.166;10.864;2022-09-09T12:00:38;2.30;;;2.00;;
14961;SDS011;56489;53.166;10.864;2022-09-09T12:06:25;2.15;;;2.05;;
14961;SDS011;56489;53.166;10.864;2022-09-09T12:09:08;2.20;;;2.00;;
14961;SDS011;56489;53.166;10.864;2022-09-09T12:11:43;2.00;;;1.90;;
14961;SDS011;56489;53.166;10.864;2022-09-09T12:14:19;3.20;;;1.98;;
14961;SDS011;56489;53.166;10.864;2022-09-09T12:16:49;2.63;;;2.20;;
14961;SDS011;56489;53.166;10.864;2022-09-09T12:19:19;2.08;;;1.88;;
14961;SDS011;56489;53.166;10.864;2022-09-09T12:22:01;4.25;;;2.05;;
14961;SDS011;56489;53.166;10.864;2022-09-09T12:24:54;3.00;;;2.28;;
14961;SDS011;56489;53.166;10.864;2022-09-09T12:27:34;3.17;;;2.58;;
14961;SDS011;56489;53.166;10.864;2022-09-09T12:30:11;4.78;;;2.38;;
14961;SDS011;56489;53.166;10.864;2022-09-09T12:32:40;2.25;;;2.10;;
14961;SDS011;56489;53.166;10.864;2022-09-09T12:35:18;2.40;;;2.20;;
14961;SDS011;56489;53.166;10.864;2022-09-09T12:37:49;3.08;;;2.50;;
14961;SDS011;56489;53.166;10.864;2022-09-09T12:40:21;2.38;;;2.17;;
14961;SDS011;56489;53.166;10.864;2022-09-09T12:42:50;2.75;;;2.55;;
14961;SDS011;56489;53.166;10.864;2022-09-09T12:45:18;2.67;;;2.20;;
14961;SDS011;56489;53.166;10.864;2022-09-09T12:50:31;2.88;;;2.17;;
14961;SDS011;56489;53.166;10.864;2022-09-09T12:53:03;3.95;;;2.65;;
14961;SDS011;56489;53.166;10.864;2022-09-09T12:55:36;4.28;;;2.60;;
14961;SDS011;56489;53.166;10.864;2022-09-09T12:58:04;2.70;;;2.50;;
14961;SDS011;56489;53.166;10.864;2022-09-09T13:00:33;2.75;;;2.55;;
14961;SDS011;56489;53.166;10.864;2022-09-09T13:03:02;2.60;;;2.10;;
14961;SDS011;56489;53.166;10.864;2022-09-09T13:05:40;2.67;;;2.28;;
14961;SDS011;56489;53.166;10.864;2022-09-09T13:08:13;2.75;;;2.55;;
14961;SDS011;56489;53.166;10.864;2022-09-09T13:10:44;2.45;;;2.35;;
14961;SDS011;56489;53.166;10.864;2022-09-09T13:13:28;3.03;;;2.83;;
14961;SDS011;56489;53.166;10.864;2022-09-09T13:16:00;2.60;;;2.40;;
14961;SDS011;56489;53.166;10.864;2022-09-09T13:18:34;3.40;;;2.50;;
14961;SDS011;56489;53.166;10.864;2022-09-09T13:21:04;3.00;;;2.67;;
14961;SDS011;56489;53.166;10.864;2022-09-09T13:23:32;2.45;;;2.25;;
14961;SDS011;56489;53.166;10.864;2022-09-09T13:26:02;2.65;;;2.47;;
14961;SDS011;56489;53.166;10.864;2022-09-09T13:28:45;2.88;;;2.30;;
14961;SDS011;56489;53.166;10.864;2022-09-09T13:31:23;5.00;;;3.78;;
14961;SDS011;56489;53.166;10.864;2022-09-09T13:33:57;4.35;;;2.97;;
14961;SDS011;56489;53.166;10.864;2022-09-09T13:36:28;3.60;;;3.30;;
14961;SDS011;56489;53.166;10.864;2022-09-09T13:39:01;3.72;;;3.25;;
14961;SDS011;56489;53.166;10.864;2022-09-09T13:41:33;3.25;;;2.90;;
14961;SDS011;56489;53.166;10.864;2022-09-09T13:44:21;3.88;;;3.63;;
14961;SDS011;56489;53.166;10.864;2022-09-09T13:47:04;3.60;;;3.20;;
14961;SDS011;56489;53.166;10.864;2022-09-09T13:49:35;5.05;;;3.10;;
14961;SDS011;56489;53.166;10.864;2022-09-09T13:52:09;4.03;;;3.30;;
14961;SDS011;56489;53.166;10.864;2022-09-09T13:54:38;5.13;;;4.00;;
14961;SDS011;56489;53.166;10.864;2022-09-09T13:57:05;3.42;;;2.92;;
14961;SDS011;56489;53.166;10.864;2022-09-09T13:59:42;3.35;;;2.63;;
14961;SDS011;56489;53.166;10.864;2022-09-09T14:02:28;2.58;;;2.38;;
14961;SDS011;56489;53.166;10.864;2022-09-09T14:04:57;2.70;;;2.50;;
14961;SDS011;56489;53.166;10.864;2022-09-09T14:07:24;2.60;;;2.40;;
14961;SDS011;56489;53.166;10.864;2022-09-09T14:09:51;3.15;;;2.83;;
14961;SDS011;56489;53.166;10.864;2022-09-09T14:12:18;2.85;;;2.65;;
14961;SDS011;56489;53.166;10.864;2022-09-09T14:14:46;4.70;;;2.75;;
14961;SDS011;56489;53.166;10.864;2022-09-09T14:17:13;2.90;;;2.70;;
14961;SDS011;56489;53.166;10.864;2022-09-09T14:19:40;5.63;;;2.80;;
14961;SDS011;56489;53.166;10.864;2022-09-09T14:22:07;2.75;;;2.55;;
14961;SDS011;56489;53.166;10.864;2022-09-09T14:24:34;3.28;;;2.97;;
14961;SDS011;56489;53.166;10.864;2022-09-09T14:27:01;2.72;;;2.53;;
14961;SDS011;56489;53.166;10.864;2022-09-09T14:29:27;3.47;;;2.72;;
14961;SDS011;56489;53.166;10.864;2022-09-09T14:31:54;3.83;;;2.90;;
14961;SDS011;56489;53.166;10.864;2022-09-09T14:34:21;3.58;;;2.80;;
14961;SDS011;56489;53.166;10.864;2022-09-09T14:36:47;3.17;;;2.88;;
14961;SDS011;56489;53.166;10.864;2022-09-09T14:39:14;3.92;;;3.53;;
14961;SDS011;56489;53.166;10.864;2022-09-09T14:41:41;3.30;;;3.00;;
14961;SDS011;56489;53.166;10.864;2022-09-09T14:44:07;3.17;;;2.92;;
14961;SDS011;56489;53.166;10.864;2022-09-09T14:46:35;3.67;;;3.35;;
14961;SDS011;56489;53.166;10.864;2022-09-09T14:49:01;3.58;;;3.10;;
14961;SDS011;56489;53.166;10.864;2022-09-09T14:51:28;3.53;;;3.20;;
14961;SDS011;56489;53.166;10.864;2022-09-09T14:53:57;3.33;;;2.97;;
14961;SDS011;56489;53.166;10.864;2022-09-09T14:56:26;3.95;;;3.42;;
14961;SDS011;56489;53.166;10.864;2022-09-09T14:58:56;3.72;;;3.40;;
14961;SDS011;56489;53.166;10.864;2022-09-09T15:01:24;4.60;;;2.60;;
14961;SDS011;56489;53.166;10.864;2022-09-09T15:03:56;3.65;;;3.35;;
14961;SDS011;56489;53.166;10.864;2022-09-09T15:06:29;3.50;;;3.03;;
14961;SDS011;56489;53.166;10.864;2022-09-09T15:08:59;3.53;;;3.05;;
14961;SDS011;56489;53.166;10.864;2022-09-09T15:11:27;3.53;;;2.70;;
14961;SDS011;56489;53.166;10.864;2022-09-09T15:13:56;3.20;;;2.90;;
14961;SDS011;56489;53.166;10.864;2022-09-09T15:16:26;3.15;;;2.63;;
14961;SDS011;56489;53.166;10.864;2022-09-09T15:18:55;3.08;;;2.78;;
14961;SDS011;56489;53.166;10.864;2022-09-09T15:21:24;3.35;;;3.15;;
14961;SDS011;56489;53.166;10.864;2022-09-09T15:23:53;2.95;;;2.75;;
14961;SDS011;56489;53.166;10.864;2022-09-09T15:26:20;3.60;;;2.75;;
14961;SDS011;56489;53.166;10.864;2022-09-09T15:28:48;3.80;;;3.50;;
14961;SDS011;56489;53.166;10.864;2022-09-09T15:31:16;4.55;;;4.15;;
14961;SDS011;56489;53.166;10.864;2022-09-09T15:33:55;6.55;;;5.50;;
14961;SDS011;56489;53.166;10.864;2022-09-09T15:39:01;5.38;;;4.88;;
14961;SDS011;56489;53.166;10.864;2022-09-09T15:41:30;6.72;;;4.55;;
14961;SDS011;56489;53.166;10.864;2022-09-09T15:43:57;4.95;;;4.20;;
14961;SDS011;56489;53.166;10.864;2022-09-09T15:46:29;4.63;;;4.22;;
14961;SDS011;56489;53.166;10.864;2022-09-09T15:48:57;4.30;;;3.90;;
14961;SDS011;56489;53.166;10.864;2022-09-09T15:51:37;4.10;;;3.55;;
14961;SDS011;56489;53.166;10.864;2022-09-09T15:54:09;6.22;;;4.18;;
14961;SDS011;56489;53.166;10.864;2022-09-09T15:56:45;2.97;;;2.67;;
14961;SDS011;56489;53.166;10.864;2022-09-09T15:59:15;3.28;;;2.97;;
14961;SDS011;56489;53.166;10.864;2022-09-09T16:01:42;2.92;;;2.72;;
14961;SDS011;56489;53.166;10.864;2022-09-09T16:04:10;2.80;;;2.60;;
14961;SDS011;56489;53.166;10.864;2022-09-09T16:06:36;3.10;;;2.80;;
14961;SDS011;56489;53.166;10.864;2022-09-09T16:09:05;2.97;;;2.20;;
14961;SDS011;56489;53.166;10.864;2022-09-09T16:11:34;3.17;;;2.45;;
14961;SDS011;56489;53.166;10.864;2022-09-09T16:14:02;2.38;;;2.17;;
14961;SDS011;56489;53.166;10.864;2022-09-09T16:16:30;2.70;;;2.45;;
14961;SDS011;56489;53.166;10.864;2022-09-09T16:18:58;2.92;;;1.88;;
14961;SDS011;56489;53.166;10.864;2022-09-09T16:21:30;2.40;;;2.20;;
14961;SDS011;56489;53.166;10.864;2022-09-09T16:23:59;2.60;;;2.00;;
14961;SDS011;56489;53.166;10.864;2022-09-09T16:26:29;3.10;;;2.17;;
14961;SDS011;56489;53.166;10.864;2022-09-09T16:28:58;2.55;;;2.33;;
14961;SDS011;56489;53.166;10.864;2022-09-09T16:31:26;1.98;;;1.85;;
14961;SDS011;56489;53.166;10.864;2022-09-09T16:33:54;2.45;;;2.25;;
14961;SDS011;56489;53.166;10.864;2022-09-09T16:36:23;1.85;;;1.75;;
14961;SDS011;56489;53.166;10.864;2022-09-09T16:38:52;2.25;;;2.00;;
14961;SDS011;56489;53.166;10.864;2022-09-09T16:41:21;3.45;;;1.90;;
14961;SDS011;56489;53.166;10.864;2022-09-09T16:43:51;3.50;;;1.90;;
14961;SDS011;56489;53.166;10.864;2022-09-09T16:46:23;2.08;;;1.98;;
14961;SDS011;56489;53.166;10.864;2022-09-09T16:48:50;2.22;;;1.95;;